sensor_id;sensor_type;location;lat;lon;timestamp;P1;durP1;ratioP1;P2;durP2;ratioP2
3591;SDS011;1810;48.720;9.094;2023-10-19T00:00:55;258.27;;;245.70;;
3591;SDS011;1810;48.720;9.094;2023-10-19T00:03:24;407.70;;;387.48;;
3591;SDS011;1810;48.720;9.094;2023-10-19T00:05:55;485.60;;;461.27;;
3591;SDS011;1810;48.720;9.094;2023-10-19T00:08:24;502.40;;;476.63;;
3591;SDS011;1810;48.720;9.094;2023-10-19T00:11:03;521.05;;;494.35;;
3591;SDS011;1810;48.720;9.094;2023-10-19T00:13:35;517.03;;;490.13;;
3591;SDS011;1810;48.720;9.094;2023-10-19T00:16:05;512.30;;;485.88;;
3591;SDS011;1810;48.720;9.094;2023-10-19T00:18:38;534.78;;;507.38;;
3591;SDS011;1810;48.720;9.094;2023-10-19T00:21:09;534.55;;;506.38;;
3591;SDS011;1810;48.720;9.094;2023-10-19T00:23:46;492.10;;;467.98;;
3591;SDS011;1810;48.720;9.094;2023-10-19T00:26:23;524.20;;;497.02;;
3591;SDS011;1810;48.720;9.094;2023-10-19T00:28:51;501.30;;;475.92;;
3591;SDS011;1810;48.720;9.094;2023-10-19T00:31:22;517.40;;;490.85;;
3591;SDS011;1810;48.720;9.094;2023-10-19T00:33:51;491.15;;;466.75;;
3591;SDS011;1810;48.720;9.094;2023-10-19T00:36:21;510.55;;;484.17;;
3591;SDS011;1810;48.720;9.094;2023-10-19T00:38:51;546.63;;;518.35;;
3591;SDS011;1810;48.720;9.094;2023-10-19T00:41:21;510.80;;;485.02;;
3591;SDS011;1810;48.720;9.094;2023-10-19T00:43:56;510.05;;;484.25;;
3591;SDS011;1810;48.720;9.094;2023-10-19T00:46:29;566.13;;;535.40;;
3591;SDS011;1810;48.720;9.094;2023-10-19T00:49:04;547.97;;;519.53;;
3591;SDS011;1810;48.720;9.094;2023-10-19T00:51:34;533.40;;;505.98;;
3591;SDS011;1810;48.720;9.094;2023-10-19T00:54:17;640.28;;;604.28;;
3591;SDS011;1810;48.720;9.094;2023-10-19T00:56:54;590.70;;;558.17;;
3591;SDS011;1810;48.720;9.094;2023-10-19T00:59:25;587.05;;;555.25;;
3591;SDS011;1810;48.720;9.094;2023-10-19T01:01:57;667.03;;;628.90;;
3591;SDS011;1810;48.720;9.094;2023-10-19T01:04:43;568.20;;;537.53;;
3591;SDS011;1810;48.720;9.094;2023-10-19T01:07:16;601.55;;;568.35;;
3591;SDS011;1810;48.720;9.094;2023-10-19T01:09:49;617.00;;;582.58;;
3591;SDS011;1810;48.720;9.094;2023-10-19T01:12:21;546.72;;;517.95;;
3591;SDS011;1810;48.720;9.094;2023-10-19T01:15:05;574.10;;;543.58;;
3591;SDS011;1810;48.720;9.094;2023-10-19T01:17:40;644.83;;;608.90;;
3591;SDS011;1810;48.720;9.094;2023-10-19T01:20:11;611.22;;;577.47;;
3591;SDS011;1810;48.720;9.094;2023-10-19T01:22:49;615.28;;;580.45;;
3591;SDS011;1810;48.720;9.094;2023-10-19T01:25:20;610.47;;;576.70;;
3591;SDS011;1810;48.720;9.094;2023-10-19T01:28:01;547.38;;;518.30;;
3591;SDS011;1810;48.720;9.094;2023-10-19T01:30:35;573.30;;;541.92;;
3591;SDS011;1810;48.720;9.094;2023-10-19T01:33:05;590.30;;;558.55;;
3591;SDS011;1810;48.720;9.094;2023-10-19T01:35:40;674.75;;;636.00;;
3591;SDS011;1810;48.720;9.094;2023-10-19T01:38:28;628.47;;;593.28;;
3591;SDS011;1810;48.720;9.094;2023-10-19T01:40:58;647.55;;;611.30;;
3591;SDS011;1810;48.720;9.094;2023-10-19T01:43:25;632.50;;;596.63;;
3591;SDS011;1810;48.720;9.094;2023-10-19T01:45:57;547.50;;;518.58;;
3591;SDS011;1810;48.720;9.094;2023-10-19T01:48:25;605.80;;;572.40;;
3591;SDS011;1810;48.720;9.094;2023-10-19T01:51:02;575.58;;;544.25;;
3591;SDS011;1810;48.720;9.094;2023-10-19T01:53:32;611.15;;;577.55;;
3591;SDS011;1810;48.720;9.094;2023-10-19T01:56:03;643.45;;;606.35;;
3591;SDS011;1810;48.720;9.094;2023-10-19T01:58:32;644.75;;;608.80;;
3591;SDS011;1810;48.720;9.094;2023-10-19T02:01:03;663.88;;;625.35;;
3591;SDS011;1810;48.720;9.094;2023-10-19T02:03:35;598.13;;;565.25;;
3591;SDS011;1810;48.720;9.094;2023-10-19T02:06:09;585.70;;;553.63;;
3591;SDS011;1810;48.720;9.094;2023-10-19T02:11:18;578.63;;;547.53;;
3591;SDS011;1810;48.720;9.094;2023-10-19T02:13:48;623.28;;;588.65;;
3591;SDS011;1810;48.720;9.094;2023-10-19T02:16:20;661.58;;;623.53;;
3591;SDS011;1810;48.720;9.094;2023-10-19T02:18:48;695.58;;;654.75;;
3591;SDS011;1810;48.720;9.094;2023-10-19T02:21:17;711.33;;;669.30;;
3591;SDS011;1810;48.720;9.094;2023-10-19T02:23:49;699.47;;;658.10;;
3591;SDS011;1810;48.720;9.094;2023-10-19T02:26:18;704.13;;;662.17;;
3591;SDS011;1810;48.720;9.094;2023-10-19T02:28:49;675.17;;;635.47;;
3591;SDS011;1810;48.720;9.094;2023-10-19T02:31:19;675.08;;;636.35;;
3591;SDS011;1810;48.720;9.094;2023-10-19T02:33:48;713.55;;;671.38;;
3591;SDS011;1810;48.720;9.094;2023-10-19T02:36:19;720.00;;;677.30;;
3591;SDS011;1810;48.720;9.094;2023-10-19T02:38:46;692.15;;;651.85;;
3591;SDS011;1810;48.720;9.094;2023-10-19T02:41:20;629.70;;;594.55;;
3591;SDS011;1810;48.720;9.094;2023-10-19T02:43:47;625.92;;;591.00;;
3591;SDS011;1810;48.720;9.094;2023-10-19T02:46:28;583.30;;;551.63;;
3591;SDS011;1810;48.720;9.094;2023-10-19T02:48:55;578.95;;;547.85;;
3591;SDS011;1810;48.720;9.094;2023-10-19T02:51:24;553.63;;;524.33;;
3591;SDS011;1810;48.720;9.094;2023-10-19T02:53:52;564.30;;;534.40;;
3591;SDS011;1810;48.720;9.094;2023-10-19T02:56:22;554.15;;;524.92;;
3591;SDS011;1810;48.720;9.094;2023-10-19T02:58:50;563.80;;;533.20;;
3591;SDS011;1810;48.720;9.094;2023-10-19T03:01:19;539.78;;;511.80;;
3591;SDS011;1810;48.720;9.094;2023-10-19T03:03:49;552.58;;;523.08;;
3591;SDS011;1810;48.720;9.094;2023-10-19T03:06:20;591.22;;;559.20;;
3591;SDS011;1810;48.720;9.094;2023-10-19T03:08:48;605.03;;;571.70;;
3591;SDS011;1810;48.720;9.094;2023-10-19T03:11:25;650.15;;;612.63;;
3591;SDS011;1810;48.720;9.094;2023-10-19T03:13:53;503.48;;;478.13;;
3591;SDS011;1810;48.720;9.094;2023-10-19T03:16:23;616.83;;;581.22;;
3591;SDS011;1810;48.720;9.094;2023-10-19T03:18:54;535.90;;;508.00;;
3591;SDS011;1810;48.720;9.094;2023-10-19T03:21:23;538.80;;;510.67;;
3591;SDS011;1810;48.720;9.094;2023-10-19T03:23:53;619.53;;;584.80;;
3591;SDS011;1810;48.720;9.094;2023-10-19T03:26:23;528.28;;;500.95;;
3591;SDS011;1810;48.720;9.094;2023-10-19T03:28:59;506.33;;;480.35;;
3591;SDS011;1810;48.720;9.094;2023-10-19T03:31:33;518.78;;;492.10;;
3591;SDS011;1810;48.720;9.094;2023-10-19T03:34:09;596.78;;;564.22;;
3591;SDS011;1810;48.720;9.094;2023-10-19T03:36:39;508.33;;;482.30;;
3591;SDS011;1810;48.720;9.094;2023-10-19T03:39:08;452.55;;;429.90;;
3591;SDS011;1810;48.720;9.094;2023-10-19T03:41:39;544.00;;;515.47;;
3591;SDS011;1810;48.720;9.094;2023-10-19T03:44:11;447.60;;;425.67;;
3591;SDS011;1810;48.720;9.094;2023-10-19T03:46:45;518.10;;;491.98;;
3591;SDS011;1810;48.720;9.094;2023-10-19T03:49:24;542.58;;;514.00;;
3591;SDS011;1810;48.720;9.094;2023-10-19T03:51:59;569.78;;;539.15;;
3591;SDS011;1810;48.720;9.094;2023-10-19T03:54:46;579.55;;;548.50;;
3591;SDS011;1810;48.720;9.094;2023-10-19T03:57:17;680.90;;;640.72;;
3591;SDS011;1810;48.720;9.094;2023-10-19T03:59:53;527.10;;;499.65;;
3591;SDS011;1810;48.720;9.094;2023-10-19T04:02:24;641.97;;;605.17;;
3591;SDS011;1810;48.720;9.094;2023-10-19T04:04:55;581.08;;;549.75;;
3591;SDS011;1810;48.720;9.094;2023-10-19T04:07:24;646.22;;;609.38;;
3591;SDS011;1810;48.720;9.094;2023-10-19T04:09:57;672.47;;;633.60;;
3591;SDS011;1810;48.720;9.094;2023-10-19T04:12:36;692.78;;;652.78;;
3591;SDS011;1810;48.720;9.094;2023-10-19T04:15:10;688.35;;;647.22;;
3591;SDS011;1810;48.720;9.094;2023-10-19T04:17:42;648.90;;;612.13;;
3591;SDS011;1810;48.720;9.094;2023-10-19T04:20:12;709.50;;;667.65;;
3591;SDS011;1810;48.720;9.094;2023-10-19T04:22:55;653.03;;;616.25;;
3591;SDS011;1810;48.720;9.094;2023-10-19T04:25:32;653.50;;;616.53;;
3591;SDS011;1810;48.720;9.094;2023-10-19T04:28:00;671.85;;;633.05;;
3591;SDS011;1810;48.720;9.094;2023-10-19T04:30:31;718.40;;;674.92;;
3591;SDS011;1810;48.720;9.094;2023-10-19T04:33:03;702.05;;;660.38;;
3591;SDS011;1810;48.720;9.094;2023-10-19T04:35:35;634.05;;;597.85;;
3591;SDS011;1810;48.720;9.094;2023-10-19T04:38:04;717.10;;;673.45;;
3591;SDS011;1810;48.720;9.094;2023-10-19T04:40:33;674.45;;;634.88;;
3591;SDS011;1810;48.720;9.094;2023-10-19T04:43:02;709.20;;;667.10;;
3591;SDS011;1810;48.720;9.094;2023-10-19T04:45:33;637.70;;;601.63;;
3591;SDS011;1810;48.720;9.094;2023-10-19T04:48:02;712.35;;;669.88;;
3591;SDS011;1810;48.720;9.094;2023-10-19T04:50:32;664.28;;;625.90;;
3591;SDS011;1810;48.720;9.094;2023-10-19T04:53:00;689.47;;;649.28;;
3591;SDS011;1810;48.720;9.094;2023-10-19T04:55:29;678.08;;;638.63;;
3591;SDS011;1810;48.720;9.094;2023-10-19T04:57:58;681.25;;;640.72;;
3591;SDS011;1810;48.720;9.094;2023-10-19T05:00:26;596.20;;;563.67;;
3591;SDS011;1810;48.720;9.094;2023-10-19T05:02:56;704.05;;;661.95;;
3591;SDS011;1810;48.720;9.094;2023-10-19T05:05:25;679.72;;;640.00;;
3591;SDS011;1810;48.720;9.094;2023-10-19T05:07:53;658.70;;;621.33;;
3591;SDS011;1810;48.720;9.094;2023-10-19T05:10:22;601.30;;;568.63;;
3591;SDS011;1810;48.720;9.094;2023-10-19T05:12:51;724.72;;;680.35;;
3591;SDS011;1810;48.720;9.094;2023-10-19T05:15:21;757.53;;;710.13;;
3591;SDS011;1810;48.720;9.094;2023-10-19T05:17:49;743.13;;;697.00;;
3591;SDS011;1810;48.720;9.094;2023-10-19T05:20:36;704.67;;;662.22;;
3591;SDS011;1810;48.720;9.094;2023-10-19T05:25:35;573.55;;;542.17;;
3591;SDS011;1810;48.720;9.094;2023-10-19T05:28:04;568.55;;;537.65;;
3591;SDS011;1810;48.720;9.094;2023-10-19T05:30:34;713.53;;;671.17;;
3591;SDS011;1810;48.720;9.094;2023-10-19T05:33:03;662.92;;;624.53;;
3591;SDS011;1810;48.720;9.094;2023-10-19T05:35:34;721.53;;;677.47;;
3591;SDS011;1810;48.720;9.094;2023-10-19T05:38:07;679.70;;;639.72;;
3591;SDS011;1810;48.720;9.094;2023-10-19T05:40:35;677.75;;;637.72;;
3591;SDS011;1810;48.720;9.094;2023-10-19T05:43:05;728.75;;;684.30;;
3591;SDS011;1810;48.720;9.094;2023-10-19T05:45:34;722.78;;;678.58;;
3591;SDS011;1810;48.720;9.094;2023-10-19T05:48:07;707.40;;;665.15;;
3591;SDS011;1810;48.720;9.094;2023-10-19T05:50:37;673.25;;;634.28;;
3591;SDS011;1810;48.720;9.094;2023-10-19T05:53:06;737.78;;;692.63;;
3591;SDS011;1810;48.720;9.094;2023-10-19T05:55:35;732.22;;;687.17;;
3591;SDS011;1810;48.720;9.094;2023-10-19T05:58:06;705.10;;;662.80;;
3591;SDS011;1810;48.720;9.094;2023-10-19T06:00:34;680.65;;;641.13;;
3591;SDS011;1810;48.720;9.094;2023-10-19T06:03:05;689.08;;;649.03;;
3591;SDS011;1810;48.720;9.094;2023-10-19T06:05:34;676.40;;;636.90;;
3591;SDS011;1810;48.720;9.094;2023-10-19T06:08:04;760.65;;;712.13;;
3591;SDS011;1810;48.720;9.094;2023-10-19T06:10:33;674.63;;;634.90;;
3591;SDS011;1810;48.720;9.094;2023-10-19T06:13:06;735.05;;;689.28;;
3591;SDS011;1810;48.720;9.094;2023-10-19T06:15:36;713.25;;;670.58;;
3591;SDS011;1810;48.720;9.094;2023-10-19T06:18:05;684.08;;;643.92;;
3591;SDS011;1810;48.720;9.094;2023-10-19T06:20:34;743.38;;;696.38;;
3591;SDS011;1810;48.720;9.094;2023-10-19T06:23:05;724.05;;;679.92;;
3591;SDS011;1810;48.720;9.094;2023-10-19T06:25:34;774.10;;;725.03;;
3591;SDS011;1810;48.720;9.094;2023-10-19T06:28:02;756.25;;;708.75;;
3591;SDS011;1810;48.720;9.094;2023-10-19T06:30:31;720.40;;;676.95;;
3591;SDS011;1810;48.720;9.094;2023-10-19T06:33:00;748.38;;;702.17;;
3591;SDS011;1810;48.720;9.094;2023-10-19T06:35:30;747.72;;;701.35;;
3591;SDS011;1810;48.720;9.094;2023-10-19T06:37:59;737.63;;;691.40;;
3591;SDS011;1810;48.720;9.094;2023-10-19T06:40:33;743.30;;;697.25;;
3591;SDS011;1810;48.720;9.094;2023-10-19T06:43:03;744.38;;;697.80;;
3591;SDS011;1810;48.720;9.094;2023-10-19T06:45:32;768.92;;;720.25;;
3591;SDS011;1810;48.720;9.094;2023-10-19T06:48:03;805.25;;;753.38;;
3591;SDS011;1810;48.720;9.094;2023-10-19T06:50:34;762.88;;;714.13;;
3591;SDS011;1810;48.720;9.094;2023-10-19T06:53:04;774.75;;;725.75;;
3591;SDS011;1810;48.720;9.094;2023-10-19T06:55:34;730.88;;;685.95;;
3591;SDS011;1810;48.720;9.094;2023-10-19T06:58:03;747.00;;;700.35;;
3591;SDS011;1810;48.720;9.094;2023-10-19T07:00:32;786.55;;;736.60;;
3591;SDS011;1810;48.720;9.094;2023-10-19T07:03:03;774.88;;;725.60;;
3591;SDS011;1810;48.720;9.094;2023-10-19T07:05:33;807.83;;;754.58;;
3591;SDS011;1810;48.720;9.094;2023-10-19T07:08:02;803.20;;;750.95;;
3591;SDS011;1810;48.720;9.094;2023-10-19T07:10:34;782.97;;;732.92;;
3591;SDS011;1810;48.720;9.094;2023-10-19T07:13:03;803.63;;;751.33;;
3591;SDS011;1810;48.720;9.094;2023-10-19T07:15:32;790.95;;;739.63;;
3591;SDS011;1810;48.720;9.094;2023-10-19T07:18:01;880.67;;;819.13;;
3591;SDS011;1810;48.720;9.094;2023-10-19T07:20:29;890.58;;;828.17;;
3591;SDS011;1810;48.720;9.094;2023-10-19T07:22:59;828.50;;;774.25;;
3591;SDS011;1810;48.720;9.094;2023-10-19T07:28:10;846.47;;;790.03;;
3591;SDS011;1810;48.720;9.094;2023-10-19T07:30:39;806.35;;;753.83;;
3591;SDS011;1810;48.720;9.094;2023-10-19T07:33:08;849.92;;;792.75;;
3591;SDS011;1810;48.720;9.094;2023-10-19T07:35:40;811.90;;;758.30;;
3591;SDS011;1810;48.720;9.094;2023-10-19T07:38:10;828.00;;;773.20;;
3591;SDS011;1810;48.720;9.094;2023-10-19T07:40:41;887.40;;;824.40;;
3591;SDS011;1810;48.720;9.094;2023-10-19T07:43:10;820.05;;;766.35;;
3591;SDS011;1810;48.720;9.094;2023-10-19T07:45:39;848.25;;;791.78;;
3591;SDS011;1810;48.720;9.094;2023-10-19T07:48:09;802.20;;;750.03;;
3591;SDS011;1810;48.720;9.094;2023-10-19T07:50:38;822.30;;;768.08;;
3591;SDS011;1810;48.720;9.094;2023-10-19T07:53:09;853.80;;;796.20;;
3591;SDS011;1810;48.720;9.094;2023-10-19T07:55:37;817.95;;;764.33;;
3591;SDS011;1810;48.720;9.094;2023-10-19T07:58:08;820.63;;;765.85;;
3591;SDS011;1810;48.720;9.094;2023-10-19T08:00:36;841.08;;;784.42;;
3591;SDS011;1810;48.720;9.094;2023-10-19T08:03:05;877.42;;;817.58;;
3591;SDS011;1810;48.720;9.094;2023-10-19T08:05:35;896.88;;;835.33;;
3591;SDS011;1810;48.720;9.094;2023-10-19T08:08:05;888.63;;;827.00;;
3591;SDS011;1810;48.720;9.094;2023-10-19T08:10:35;895.80;;;834.42;;
3591;SDS011;1810;48.720;9.094;2023-10-19T08:13:04;890.80;;;829.72;;
3591;SDS011;1810;48.720;9.094;2023-10-19T08:15:35;898.30;;;836.42;;
3591;SDS011;1810;48.720;9.094;2023-10-19T08:18:04;1005.05;;;925.65;;
3591;SDS011;1810;48.720;9.094;2023-10-19T08:20:33;908.30;;;845.38;;
3591;SDS011;1810;48.720;9.094;2023-10-19T08:23:03;944.25;;;875.60;;
3591;SDS011;1810;48.720;9.094;2023-10-19T08:25:32;850.45;;;793.22;;
3591;SDS011;1810;48.720;9.094;2023-10-19T08:28:21;802.65;;;749.90;;
3591;SDS011;1810;48.720;9.094;2023-10-19T08:30:52;825.38;;;771.08;;
3591;SDS011;1810;48.720;9.094;2023-10-19T08:33:28;815.78;;;762.17;;
3591;SDS011;1810;48.720;9.094;2023-10-19T08:36:00;832.03;;;776.70;;
3591;SDS011;1810;48.720;9.094;2023-10-19T08:38:30;966.25;;;892.55;;
3591;SDS011;1810;48.720;9.094;2023-10-19T08:40:59;900.78;;;836.75;;
3591;SDS011;1810;48.720;9.094;2023-10-19T08:43:28;941.60;;;872.47;;
3591;SDS011;1810;48.720;9.094;2023-10-19T08:46:01;896.38;;;834.65;;
3591;SDS011;1810;48.720;9.094;2023-10-19T08:48:33;949.28;;;879.63;;
3591;SDS011;1810;48.720;9.094;2023-10-19T08:51:03;862.92;;;804.80;;
3591;SDS011;1810;48.720;9.094;2023-10-19T08:53:37;888.88;;;827.70;;
3591;SDS011;1810;48.720;9.094;2023-10-19T08:56:10;884.55;;;824.08;;
3591;SDS011;1810;48.720;9.094;2023-10-19T08:58:39;954.28;;;884.20;;
3591;SDS011;1810;48.720;9.094;2023-10-19T09:01:09;900.47;;;837.83;;
3591;SDS011;1810;48.720;9.094;2023-10-19T09:03:38;963.15;;;888.00;;
3591;SDS011;1810;48.720;9.094;2023-10-19T09:06:08;946.03;;;876.28;;
3591;SDS011;1810;48.720;9.094;2023-10-19T09:08:41;889.47;;;828.78;;
3591;SDS011;1810;48.720;9.094;2023-10-19T09:11:13;884.10;;;822.88;;
3591;SDS011;1810;48.720;9.094;2023-10-19T09:13:45;880.60;;;820.45;;
3591;SDS011;1810;48.720;9.094;2023-10-19T09:16:18;895.63;;;833.42;;
3591;SDS011;1810;48.720;9.094;2023-10-19T09:18:48;933.53;;;866.63;;
3591;SDS011;1810;48.720;9.094;2023-10-19T09:21:18;871.50;;;812.28;;
3591;SDS011;1810;48.720;9.094;2023-10-19T09:23:51;883.08;;;823.05;;
3591;SDS011;1810;48.720;9.094;2023-10-19T09:26:21;892.65;;;832.17;;
3591;SDS011;1810;48.720;9.094;2023-10-19T09:28:51;869.47;;;810.75;;
3591;SDS011;1810;48.720;9.094;2023-10-19T09:31:22;863.72;;;805.22;;
3591;SDS011;1810;48.720;9.094;2023-10-19T09:33:51;869.08;;;810.22;;
3591;SDS011;1810;48.720;9.094;2023-10-19T09:36:21;907.35;;;844.20;;
3591;SDS011;1810;48.720;9.094;2023-10-19T09:38:52;1013.95;;;932.83;;
3591;SDS011;1810;48.720;9.094;2023-10-19T09:41:24;913.53;;;849.38;;
3591;SDS011;1810;48.720;9.094;2023-10-19T09:43:56;934.25;;;867.70;;
3591;SDS011;1810;48.720;9.094;2023-10-19T09:46:32;953.47;;;883.28;;
3591;SDS011;1810;48.720;9.094;2023-10-19T09:49:05;889.22;;;827.65;;
3591;SDS011;1810;48.720;9.094;2023-10-19T09:51:37;908.30;;;844.88;;
3591;SDS011;1810;48.720;9.094;2023-10-19T09:56:42;874.25;;;814.97;;
3591;SDS011;1810;48.720;9.094;2023-10-19T09:59:22;893.67;;;830.97;;
3591;SDS011;1810;48.720;9.094;2023-10-19T10:04:41;912.97;;;848.47;;
3591;SDS011;1810;48.720;9.094;2023-10-19T10:07:12;990.13;;;914.20;;
3591;SDS011;1810;48.720;9.094;2023-10-19T10:09:51;925.95;;;860.08;;
3591;SDS011;1810;48.720;9.094;2023-10-19T10:12:20;913.65;;;849.05;;
3591;SDS011;1810;48.720;9.094;2023-10-19T10:14:54;898.35;;;835.83;;
3591;SDS011;1810;48.720;9.094;2023-10-19T10:17:25;921.38;;;855.67;;
3591;SDS011;1810;48.720;9.094;2023-10-19T10:19:55;945.38;;;876.60;;
3591;SDS011;1810;48.720;9.094;2023-10-19T10:22:40;1014.70;;;919.13;;
3591;SDS011;1810;48.720;9.094;2023-10-19T10:25:09;876.00;;;816.40;;
3591;SDS011;1810;48.720;9.094;2023-10-19T10:27:54;942.45;;;871.80;;
3591;SDS011;1810;48.720;9.094;2023-10-19T10:30:23;868.58;;;809.67;;
3591;SDS011;1810;48.720;9.094;2023-10-19T10:32:53;890.55;;;828.33;;
3591;SDS011;1810;48.720;9.094;2023-10-19T10:38:21;945.92;;;876.72;;
3591;SDS011;1810;48.720;9.094;2023-10-19T10:40:50;940.95;;;872.65;;
3591;SDS011;1810;48.720;9.094;2023-10-19T10:43:19;937.90;;;869.78;;
3591;SDS011;1810;48.720;9.094;2023-10-19T10:45:49;896.40;;;833.78;;
3591;SDS011;1810;48.720;9.094;2023-10-19T10:48:20;899.22;;;836.08;;
3591;SDS011;1810;48.720;9.094;2023-10-19T10:50:49;871.65;;;812.30;;
3591;SDS011;1810;48.720;9.094;2023-10-19T10:53:23;946.80;;;877.08;;
3591;SDS011;1810;48.720;9.094;2023-10-19T10:55:53;885.88;;;825.42;;
3591;SDS011;1810;48.720;9.094;2023-10-19T10:58:22;882.90;;;821.45;;
3591;SDS011;1810;48.720;9.094;2023-10-19T11:03:48;891.85;;;829.83;;
3591;SDS011;1810;48.720;9.094;2023-10-19T11:06:16;884.08;;;823.60;;
3591;SDS011;1810;48.720;9.094;2023-10-19T11:08:45;860.05;;;801.60;;
3591;SDS011;1810;48.720;9.094;2023-10-19T11:11:14;902.58;;;839.75;;
3591;SDS011;1810;48.720;9.094;2023-10-19T11:13:43;898.60;;;836.25;;
3591;SDS011;1810;48.720;9.094;2023-10-19T11:16:21;904.78;;;842.17;;
3591;SDS011;1810;48.720;9.094;2023-10-19T11:18:51;900.40;;;837.42;;
3591;SDS011;1810;48.720;9.094;2023-10-19T11:21:20;947.88;;;873.85;;
3591;SDS011;1810;48.720;9.094;2023-10-19T11:23:48;833.53;;;777.58;;
3591;SDS011;1810;48.720;9.094;2023-10-19T11:26:19;841.67;;;784.05;;
3591;SDS011;1810;48.720;9.094;2023-10-19T11:28:56;817.55;;;764.08;;
3591;SDS011;1810;48.720;9.094;2023-10-19T11:31:26;829.38;;;774.60;;
3591;SDS011;1810;48.720;9.094;2023-10-19T11:34:06;813.05;;;759.78;;
3591;SDS011;1810;48.720;9.094;2023-10-19T11:36:36;776.95;;;726.80;;
3591;SDS011;1810;48.720;9.094;2023-10-19T11:39:05;684.97;;;644.10;;
3591;SDS011;1810;48.720;9.094;2023-10-19T11:41:38;683.05;;;642.72;;
3591;SDS011;1810;48.720;9.094;2023-10-19T11:44:06;689.60;;;648.63;;
3591;SDS011;1810;48.720;9.094;2023-10-19T11:46:36;708.40;;;665.55;;
3591;SDS011;1810;48.720;9.094;2023-10-19T11:49:06;707.60;;;664.75;;
3591;SDS011;1810;48.720;9.094;2023-10-19T11:51:35;737.45;;;690.95;;
3591;SDS011;1810;48.720;9.094;2023-10-19T11:54:04;750.33;;;703.47;;
3591;SDS011;1810;48.720;9.094;2023-10-19T11:56:33;825.00;;;770.67;;
3591;SDS011;1810;48.720;9.094;2023-10-19T11:59:01;793.03;;;741.65;;
3591;SDS011;1810;48.720;9.094;2023-10-19T12:01:33;797.90;;;745.75;;
3591;SDS011;1810;48.720;9.094;2023-10-19T12:04:01;811.25;;;758.60;;
3591;SDS011;1810;48.720;9.094;2023-10-19T12:06:33;821.88;;;768.15;;
3591;SDS011;1810;48.720;9.094;2023-10-19T12:09:02;789.53;;;737.60;;
3591;SDS011;1810;48.720;9.094;2023-10-19T12:11:41;811.10;;;757.67;;
3591;SDS011;1810;48.720;9.094;2023-10-19T12:14:14;812.85;;;759.88;;
3591;SDS011;1810;48.720;9.094;2023-10-19T12:16:42;796.22;;;744.05;;
3591;SDS011;1810;48.720;9.094;2023-10-19T12:19:12;890.78;;;826.63;;
3591;SDS011;1810;48.720;9.094;2023-10-19T12:21:44;850.55;;;792.95;;
3591;SDS011;1810;48.720;9.094;2023-10-19T12:24:12;838.28;;;782.47;;
3591;SDS011;1810;48.720;9.094;2023-10-19T12:26:41;855.60;;;797.55;;
3591;SDS011;1810;48.720;9.094;2023-10-19T12:29:13;805.80;;;753.05;;
3591;SDS011;1810;48.720;9.094;2023-10-19T12:31:46;780.92;;;730.08;;
3591;SDS011;1810;48.720;9.094;2023-10-19T12:34:18;837.38;;;781.67;;
3591;SDS011;1810;48.720;9.094;2023-10-19T12:36:51;797.67;;;745.60;;
3591;SDS011;1810;48.720;9.094;2023-10-19T12:39:24;843.78;;;787.17;;
3591;SDS011;1810;48.720;9.094;2023-10-19T12:42:09;786.72;;;735.47;;
3591;SDS011;1810;48.720;9.094;2023-10-19T12:44:38;785.50;;;735.08;;
3591;SDS011;1810;48.720;9.094;2023-10-19T12:47:10;785.58;;;734.50;;
3591;SDS011;1810;48.720;9.094;2023-10-19T12:49:40;783.30;;;733.17;;
3591;SDS011;1810;48.720;9.094;2023-10-19T12:52:12;772.90;;;723.80;;
3591;SDS011;1810;48.720;9.094;2023-10-19T12:54:41;710.58;;;666.42;;
3591;SDS011;1810;48.720;9.094;2023-10-19T12:57:12;727.88;;;683.13;;
3591;SDS011;1810;48.720;9.094;2023-10-19T12:59:41;723.55;;;679.08;;
3591;SDS011;1810;48.720;9.094;2023-10-19T13:02:10;712.53;;;669.55;;
3591;SDS011;1810;48.720;9.094;2023-10-19T13:04:41;736.35;;;690.67;;
3591;SDS011;1810;48.720;9.094;2023-10-19T13:07:14;709.38;;;666.58;;
3591;SDS011;1810;48.720;9.094;2023-10-19T13:09:43;725.33;;;681.17;;
3591;SDS011;1810;48.720;9.094;2023-10-19T13:12:12;740.38;;;694.60;;
3591;SDS011;1810;48.720;9.094;2023-10-19T13:14:41;776.90;;;727.72;;
3591;SDS011;1810;48.720;9.094;2023-10-19T13:17:10;750.60;;;704.00;;
3591;SDS011;1810;48.720;9.094;2023-10-19T13:19:40;740.33;;;694.65;;
3591;SDS011;1810;48.720;9.094;2023-10-19T13:22:08;767.67;;;718.38;;
3591;SDS011;1810;48.720;9.094;2023-10-19T13:24:43;776.17;;;726.67;;
3591;SDS011;1810;48.720;9.094;2023-10-19T13:27:12;832.78;;;777.08;;
3591;SDS011;1810;48.720;9.094;2023-10-19T13:29:46;741.60;;;694.92;;
3591;SDS011;1810;48.720;9.094;2023-10-19T13:32:17;794.70;;;742.95;;
3591;SDS011;1810;48.720;9.094;2023-10-19T13:34:46;812.13;;;758.97;;
3591;SDS011;1810;48.720;9.094;2023-10-19T13:37:15;824.72;;;771.10;;
3591;SDS011;1810;48.720;9.094;2023-10-19T13:39:54;809.55;;;755.95;;
3591;SDS011;1810;48.720;9.094;2023-10-19T13:42:22;818.80;;;764.95;;
3591;SDS011;1810;48.720;9.094;2023-10-19T13:44:51;817.50;;;763.92;;
3591;SDS011;1810;48.720;9.094;2023-10-19T13:47:20;842.55;;;786.10;;
3591;SDS011;1810;48.720;9.094;2023-10-19T13:49:50;805.65;;;752.80;;
3591;SDS011;1810;48.720;9.094;2023-10-19T13:52:18;799.45;;;747.35;;
3591;SDS011;1810;48.720;9.094;2023-10-19T13:54:47;803.78;;;751.53;;
3591;SDS011;1810;48.720;9.094;2023-10-19T13:57:18;820.42;;;765.47;;
3591;SDS011;1810;48.720;9.094;2023-10-19T13:59:47;772.70;;;723.58;;
3591;SDS011;1810;48.720;9.094;2023-10-19T14:02:17;759.22;;;711.00;;
3591;SDS011;1810;48.720;9.094;2023-10-19T14:04:46;722.17;;;677.40;;
3591;SDS011;1810;48.720;9.094;2023-10-19T14:07:14;736.47;;;690.72;;
3591;SDS011;1810;48.720;9.094;2023-10-19T14:09:43;782.30;;;731.90;;
3591;SDS011;1810;48.720;9.094;2023-10-19T14:12:12;808.28;;;754.95;;
3591;SDS011;1810;48.720;9.094;2023-10-19T14:14:42;759.22;;;711.03;;
3591;SDS011;1810;48.720;9.094;2023-10-19T14:17:12;809.63;;;756.10;;
3591;SDS011;1810;48.720;9.094;2023-10-19T14:19:42;809.03;;;755.65;;
3591;SDS011;1810;48.720;9.094;2023-10-19T14:22:11;815.17;;;761.75;;
3591;SDS011;1810;48.720;9.094;2023-10-19T14:24:42;885.92;;;822.80;;
3591;SDS011;1810;48.720;9.094;2023-10-19T14:27:11;794.55;;;743.45;;
3591;SDS011;1810;48.720;9.094;2023-10-19T14:29:40;805.63;;;752.90;;
3591;SDS011;1810;48.720;9.094;2023-10-19T14:32:10;791.65;;;739.70;;
3591;SDS011;1810;48.720;9.094;2023-10-19T14:34:39;884.80;;;822.72;;
3591;SDS011;1810;48.720;9.094;2023-10-19T14:37:08;832.75;;;777.38;;
3591;SDS011;1810;48.720;9.094;2023-10-19T14:39:37;758.38;;;710.47;;
3591;SDS011;1810;48.720;9.094;2023-10-19T14:42:06;755.38;;;707.70;;
3591;SDS011;1810;48.720;9.094;2023-10-19T14:44:35;742.47;;;696.42;;
3591;SDS011;1810;48.720;9.094;2023-10-19T14:47:04;718.55;;;674.65;;
3591;SDS011;1810;48.720;9.094;2023-10-19T14:49:34;780.38;;;730.45;;
3591;SDS011;1810;48.720;9.094;2023-10-19T14:52:03;715.55;;;671.95;;
3591;SDS011;1810;48.720;9.094;2023-10-19T14:54:32;737.72;;;692.17;;
3591;SDS011;1810;48.720;9.094;2023-10-19T14:57:01;733.45;;;688.55;;
3591;SDS011;1810;48.720;9.094;2023-10-19T15:00:00;756.80;;;709.30;;
3591;SDS011;1810;48.720;9.094;2023-10-19T15:02:22;694.83;;;653.35;;